Time;durP1;ratioP1;P1;durP2;ratioP2;P2;SDS_P1;SDS_P2;PMS_P1;PMS_P2;Temp;Humidity;BMP_temperature;BMP_pressure;BME280_temperature;BME280_humidity;BME280_pressure;Samples;Min_cycle;Max_cycle;Signal;HPM_P1;HPM_P2
2021/03/17 12:57:37;;;;;;;1.10;0.88;;;;;;;;;;5063401;27;20875;-77
2021/03/17 13:00:24;;;;;;;2.72;0.80;;;;;;;;;;5095151;27;20034;-77
2021/03/17 13:02:51;;;;;;;2.35;0.68;;;;;;;;;;5041079;28;20040;-78
2021/03/17 13:05:17;;;;;;;2.13;0.70;;;;;;;;;;5044046;28;20121;-78
2021/03/17 13:07:43;;;;;;;1.50;0.70;;;;;;;;;;5045367;28;20040;-79
2021/03/17 13:10:11;;;;;;;3.63;0.80;;;;;;;;;;5042613;28;20027;-78
2021/03/17 13:12:37;;;;;;;1.90;0.80;;;;;;;;;;5081966;28;20218;-79
2021/03/17 13:15:04;;;;;;;1.13;0.90;;;;;;;;;;5075735;28;20104;-78
2021/03/17 13:17:30;;;;;;;2.28;0.80;;;;;;;;;;5050109;28;20044;-79
2021/03/17 13:19:56;;;;;;;1.92;0.80;;;;;;;;;;5045104;28;20021;-79
2021/03/17 13:22:22;;;;;;;1.88;1.10;;;;;;;;;;5061083;28;20032;-79
2021/03/17 13:24:48;;;;;;;2.63;1.27;;;;;;;;;;5045602;28;20128;-79
2021/03/17 13:27:14;;;;;;;2.20;1.55;;;;;;;;;;5073507;28;20108;-78
2021/03/17 13:29:40;;;;;;;1.83;1.08;;;;;;;;;;5042637;28;20515;-79
2021/03/17 13:32:06;;;;;;;2.85;1.20;;;;;;;;;;5046401;28;20040;-80
2021/03/17 13:34:32;;;;;;;2.47;1.50;;;;;;;;;;5045147;28;20082;-80
2021/03/17 13:36:59;;;;;;;2.92;1.70;;;;;;;;;;5094611;28;20083;-79
2021/03/17 13:39:25;;;;;;;2.45;1.50;;;;;;;;;;5073918;28;20029;-79
2021/03/17 13:41:51;;;;;;;2.90;1.90;;;;;;;;;;5042290;28;20030;-79
2021/03/17 13:44:17;;;;;;;1.92;1.55;;;;;;;;;;5061554;28;20515;-79
2021/03/17 13:46:43;;;;;;;6.25;2.85;;;;;;;;;;5086006;27;20689;-79
2021/03/17 13:49:09;;;;;;;3.25;2.25;;;;;;;;;;5077604;28;20078;-79
2021/03/17 13:51:36;;;;;;;5.28;2.22;;;;;;;;;;5046666;28;20029;-79
2021/03/17 13:54:02;;;;;;;5.70;3.10;;;;;;;;;;5053288;28;20031;-79
2021/03/17 13:56:28;;;;;;;9.20;5.55;;;;;;;;;;5063334;28;20030;-79
2021/03/17 13:58:54;;;;;;;5.28;3.17;;;;;;;;;;5037492;28;20081;-79
2021/03/17 14:01:21;;;;;;;5.57;3.28;;;;;;;;;;5043621;28;20022;-78
2021/03/17 14:03:47;;;;;;;5.25;2.78;;;;;;;;;;5041141;28;20478;-78
2021/03/17 14:06:13;;;;;;;4.22;3.03;;;;;;;;;;5043480;28;20154;-79
2021/03/17 14:08:39;;;;;;;7.10;3.10;;;;;;;;;;5026644;28;20133;-78
2021/03/17 14:11:05;;;;;;;5.50;3.75;;;;;;;;;;5056287;28;20110;-78
2021/03/17 14:13:32;;;;;;;3.63;2.60;;;;;;;;;;5030764;28;20033;-78
2021/03/17 14:15:58;;;;;;;5.15;3.00;;;;;;;;;;5029674;28;20034;-78
2021/03/17 14:18:25;;;;;;;4.28;2.72;;;;;;;;;;5029946;28;20026;-78
2021/03/17 14:20:52;;;;;;;3.75;2.28;;;;;;;;;;5027996;28;20633;-78
2021/03/17 14:23:18;;;;;;;2.88;1.98;;;;;;;;;;5027590;28;20024;-77
2021/03/17 14:25:44;;;;;;;3.10;2.08;;;;;;;;;;5046379;28;20034;-79
2021/03/17 14:28:10;;;;;;;2.97;2.10;;;;;;;;;;5103721;28;20049;-78
2021/03/17 14:30:37;;;;;;;3.63;2.28;;;;;;;;;;5029064;28;20025;-78
2021/03/17 14:33:03;;;;;;;3.55;2.38;;;;;;;;;;5027581;28;20040;-78
2021/03/17 14:35:30;;;;;;;2.50;1.80;;;;;;;;;;5026592;28;20462;-78
2021/03/17 14:37:57;;;;;;;2.95;2.10;;;;;;;;;;5020895;28;20032;-78
2021/03/17 14:40:23;;;;;;;3.15;1.67;;;;;;;;;;5061592;28;20025;-77
2021/03/17 14:42:49;;;;;;;2.50;1.42;;;;;;;;;;5051102;28;20041;-78
2021/03/17 14:45:15;;;;;;;2.80;1.77;;;;;;;;;;5016137;28;20032;-77
2021/03/17 14:47:41;;;;;;;1.75;1.30;;;;;;;;;;5027792;28;20032;-78
2021/03/17 14:50:08;;;;;;;3.45;1.90;;;;;;;;;;4999487;28;21137;-78
2021/03/17 14:52:35;;;;;;;2.00;1.10;;;;;;;;;;5025422;28;20034;-78
2021/03/17 14:55:02;;;;;;;2.78;1.25;;;;;;;;;;5033068;28;20460;-78
2021/03/17 14:57:28;;;;;;;1.67;1.13;;;;;;;;;;5019623;28;20046;-78
2021/03/17 14:59:54;;;;;;;1.63;0.90;;;;;;;;;;5025698;28;20025;-77
2021/03/17 15:02:20;;;;;;;1.80;1.23;;;;;;;;;;5022603;28;20062;-76
2021/03/17 15:04:46;;;;;;;2.75;1.00;;;;;;;;;;5043023;28;20022;-77
2021/03/17 15:07:12;;;;;;;1.60;0.90;;;;;;;;;;5089931;28;20049;-77
2021/03/17 15:09:38;;;;;;;2.47;1.02;;;;;;;;;;5026083;28;20036;-77
2021/03/17 15:12:05;;;;;;;2.28;1.10;;;;;;;;;;5045773;28;20033;-77
2021/03/17 15:14:31;;;;;;;1.67;0.93;;;;;;;;;;5025480;28;20125;-77
2021/03/17 15:16:57;;;;;;;2.00;1.33;;;;;;;;;;5027327;28;20021;-77
2021/03/17 15:19:23;;;;;;;2.38;1.23;;;;;;;;;;5024539;28;20033;-76
2021/03/17 15:21:49;;;;;;;1.00;0.90;;;;;;;;;;5022875;28;20025;-77
2021/03/17 15:24:15;;;;;;;3.50;1.25;;;;;;;;;;5051813;28;20021;-77
2021/03/17 15:26:41;;;;;;;1.95;1.38;;;;;;;;;;5059431;28;20040;-76
2021/03/17 15:29:11;;;;;;;4.85;2.30;;;;;;;;;;5068018;28;20494;-78
2021/03/17 15:31:37;;;;;;;3.25;2.50;;;;;;;;;;5051568;28;20037;-78
2021/03/17 15:34:03;;;;;;;2.63;1.33;;;;;;;;;;5073708;28;20166;-77
2021/03/17 15:36:29;;;;;;;1.83;0.95;;;;;;;;;;5070023;28;20037;-75
2021/03/17 15:38:55;;;;;;;0.98;0.68;;;;;;;;;;5056706;28;20626;-77
2021/03/17 15:41:22;;;;;;;3.75;1.05;;;;;;;;;;5024934;28;20135;-77
2021/03/17 15:43:48;;;;;;;1.05;0.50;;;;;;;;;;5027023;28;20030;-78
2021/03/17 15:46:14;;;;;;;1.50;0.85;;;;;;;;;;5018030;28;20117;-78
2021/03/17 15:48:40;;;;;;;1.58;0.70;;;;;;;;;;5026544;28;20079;-79
2021/03/17 15:51:06;;;;;;;1.98;0.80;;;;;;;;;;5070020;28;20030;-79
2021/03/17 15:53:32;;;;;;;3.30;0.85;;;;;;;;;;5060747;28;20029;-79
2021/03/17 15:55:58;;;;;;;2.63;0.90;;;;;;;;;;5060144;28;20033;-79
2021/03/17 15:58:24;;;;;;;3.25;1.88;;;;;;;;;;5029947;28;20026;-79
2021/03/17 16:00:51;;;;;;;2.35;0.90;;;;;;;;;;5026415;28;20020;-79
2021/03/17 16:03:17;;;;;;;1.83;1.00;;;;;;;;;;5026212;28;20018;-79
2021/03/17 16:05:43;;;;;;;2.30;0.70;;;;;;;;;;5025991;28;20586;-78
2021/03/17 16:08:09;;;;;;;1.40;0.63;;;;;;;;;;5064402;28;20045;-78
2021/03/17 16:10:35;;;;;;;6.22;1.10;;;;;;;;;;5094643;28;20060;-78
2021/03/17 16:13:01;;;;;;;5.82;1.08;;;;;;;;;;5049017;28;20125;-78
2021/03/17 16:15:28;;;;;;;3.80;0.93;;;;;;;;;;5085039;28;20041;-78
2021/03/17 16:17:54;;;;;;;1.15;0.60;;;;;;;;;;5029337;28;20046;-80
2021/03/17 16:20:24;;;;;;;5.35;1.00;;;;;;;;;;5029294;28;20474;-80
2021/03/17 16:22:51;;;;;;;2.53;1.17;;;;;;;;;;5044079;28;20018;-79
2021/03/17 16:25:17;;;;;;;3.28;1.20;;;;;;;;;;5084158;27;20038;-81
2021/03/17 16:27:43;;;;;;;5.78;2.15;;;;;;;;;;5110814;27;20033;-79
2021/03/17 16:30:11;;;;;;;2.50;1.13;;;;;;;;;;5010234;28;20602;-79
2021/03/17 16:32:37;;;;;;;2.13;0.75;;;;;;;;;;5012069;28;20025;-81
2021/03/17 16:35:03;;;;;;;4.18;1.15;;;;;;;;;;5028463;28;20128;-79
2021/03/17 16:37:29;;;;;;;3.00;1.20;;;;;;;;;;5032113;28;20156;-79
2021/03/17 16:39:56;;;;;;;1.90;1.13;;;;;;;;;;5047806;28;20069;-79
2021/03/17 16:42:22;;;;;;;4.50;1.30;;;;;;;;;;5021775;28;20382;-80
2021/03/17 16:44:48;;;;;;;3.60;1.85;;;;;;;;;;5014757;28;20053;-78
2021/03/17 16:47:15;;;;;;;7.22;3.92;;;;;;;;;;5028552;28;20081;-79
2021/03/17 16:49:41;;;;;;;11.93;6.18;;;;;;;;;;5029475;28;20089;-78
2021/03/17 16:52:07;;;;;;;4.65;2.30;;;;;;;;;;5011990;28;20549;-78
2021/03/17 16:54:33;;;;;;;4.60;1.63;;;;;;;;;;5029366;28;20389;-78
2021/03/17 16:56:59;;;;;;;5.45;1.83;;;;;;;;;;5028207;28;20052;-77
2021/03/17 16:59:26;;;;;;;2.60;1.20;;;;;;;;;;5020518;28;20479;-78
2021/03/17 17:01:52;;;;;;;3.80;1.92;;;;;;;;;;5027733;28;20013;-78
2021/03/17 17:04:18;;;;;;;5.65;2.22;;;;;;;;;;5028381;28;20017;-78
2021/03/17 17:06:44;;;;;;;6.47;1.75;;;;;;;;;;5029091;28;20051;-78
2021/03/17 17:09:10;;;;;;;5.43;2.20;;;;;;;;;;5028333;28;20033;-77
2021/03/17 17:11:36;;;;;;;5.15;2.13;;;;;;;;;;5010919;28;20018;-78
2021/03/17 17:14:03;;;;;;;5.45;2.00;;;;;;;;;;5050153;28;20029;-78
2021/03/17 17:16:29;;;;;;;4.72;2.40;;;;;;;;;;5016894;28;20037;-78
2021/03/17 17:18:55;;;;;;;4.50;1.38;;;;;;;;;;5034665;28;20381;-78
2021/03/17 17:21:21;;;;;;;1.92;1.30;;;;;;;;;;5085621;28;20108;-78
2021/03/17 17:23:48;;;;;;;3.15;1.73;;;;;;;;;;5045124;28;20554;-78
2021/03/17 17:26:14;;;;;;;4.00;1.52;;;;;;;;;;5047727;28;20169;-78
2021/03/17 17:28:40;;;;;;;6.13;2.05;;;;;;;;;;5046623;28;20025;-78
2021/03/17 17:31:06;;;;;;;5.72;2.30;;;;;;;;;;5030164;28;20032;-77
2021/03/17 17:33:33;;;;;;;6.57;2.40;;;;;;;;;;5012440;28;20112;-78
2021/03/17 17:35:59;;;;;;;7.78;2.72;;;;;;;;;;5027576;28;20083;-77
2021/03/17 17:38:25;;;;;;;8.73;3.15;;;;;;;;;;5028002;28;20028;-77
2021/03/17 17:40:53;;;;;;;9.35;3.45;;;;;;;;;;5028795;28;20029;-78
2021/03/17 17:43:19;;;;;;;5.35;2.85;;;;;;;;;;5016559;28;20091;-78
2021/03/17 17:45:45;;;;;;;5.50;2.45;;;;;;;;;;5031203;28;20416;-77
2021/03/17 17:48:12;;;;;;;4.07;1.55;;;;;;;;;;5031053;28;20061;-77
2021/03/17 17:50:39;;;;;;;5.05;1.60;;;;;;;;;;5030969;28;20055;-78
2021/03/17 17:53:05;;;;;;;3.85;1.63;;;;;;;;;;5030189;28;20413;-78
2021/03/17 17:55:32;;;;;;;3.28;1.45;;;;;;;;;;5031761;28;20052;-78
2021/03/17 17:57:58;;;;;;;4.40;1.45;;;;;;;;;;5072501;28;20082;-79
2021/03/17 18:00:24;;;;;;;2.15;1.13;;;;;;;;;;5033999;28;20021;-78
2021/03/17 18:02:50;;;;;;;3.55;1.50;;;;;;;;;;5032420;28;20056;-80
2021/03/17 18:05:17;;;;;;;3.63;1.40;;;;;;;;;;5036858;28;20026;-80
2021/03/17 18:07:44;;;;;;;4.88;1.70;;;;;;;;;;5080872;28;20032;-80
2021/03/17 18:10:12;;;;;;;4.60;1.58;;;;;;;;;;5034191;28;20117;-80
2021/03/17 18:12:38;;;;;;;4.68;2.15;;;;;;;;;;5035417;28;20049;-80
2021/03/17 18:15:05;;;;;;;6.57;3.70;;;;;;;;;;5034030;28;20026;-80
2021/03/17 18:17:31;;;;;;;6.32;2.55;;;;;;;;;;5035232;28;20037;-80
2021/03/17 18:19:57;;;;;;;6.88;2.88;;;;;;;;;;5017434;28;20037;-80
2021/03/17 18:22:23;;;;;;;5.13;2.72;;;;;;;;;;5028187;28;20029;-80
2021/03/17 18:24:49;;;;;;;8.25;2.63;;;;;;;;;;5029941;28;20049;-80
2021/03/17 18:27:15;;;;;;;7.03;2.35;;;;;;;;;;5034321;28;20512;-80
2021/03/17 18:29:41;;;;;;;5.30;2.22;;;;;;;;;;5001264;28;20040;-80
2021/03/17 18:32:07;;;;;;;5.80;2.47;;;;;;;;;;5029015;28;20569;-80
2021/03/17 18:34:33;;;;;;;4.20;2.13;;;;;;;;;;5046494;28;20082;-79
2021/03/17 18:36:59;;;;;;;3.67;1.75;;;;;;;;;;5037409;28;20044;-80
2021/03/17 18:39:26;;;;;;;3.10;1.38;;;;;;;;;;5033855;28;20029;-80
2021/03/17 18:41:52;;;;;;;3.90;1.60;;;;;;;;;;5017542;28;20534;-80
2021/03/17 18:44:18;;;;;;;4.70;1.90;;;;;;;;;;5052665;28;20029;-81
2021/03/17 18:46:47;;;;;;;4.90;1.80;;;;;;;;;;5019589;28;20033;-82
2021/03/17 18:49:14;;;;;;;4.45;1.75;;;;;;;;;;5037160;28;20048;-83
2021/03/17 18:51:40;;;;;;;5.03;1.30;;;;;;;;;;5033896;28;20060;-81
2021/03/17 18:54:06;;;;;;;3.60;1.25;;;;;;;;;;5018966;28;20040;-81
